sensor_id;sensor_type;location;lat;lon;timestamp;temperature;humidity
27940;DHT22;15275;51.716;14.324;2023-05-07T00:00:21;12.30;84.50
27940;DHT22;15275;51.716;14.324;2023-05-07T00:02:47;12.30;84.50
27940;DHT22;15275;51.716;14.324;2023-05-07T00:05:13;12.30;84.50
27940;DHT22;15275;51.716;14.324;2023-05-07T00:07:40;12.30;84.60
27940;DHT22;15275;51.716;14.324;2023-05-07T00:10:06;12.30;84.60
27940;DHT22;15275;51.716;14.324;2023-05-07T00:12:33;12.30;84.60
27940;DHT22;15275;51.716;14.324;2023-05-07T00:15:01;12.30;84.40
27940;DHT22;15275;51.716;14.324;2023-05-07T00:17:28;12.30;84.10
27940;DHT22;15275;51.716;14.324;2023-05-07T00:19:55;12.30;84.20
27940;DHT22;15275;51.716;14.324;2023-05-07T00:22:20;12.30;84.20
27940;DHT22;15275;51.716;14.324;2023-05-07T00:24:46;12.20;84.20
27940;DHT22;15275;51.716;14.324;2023-05-07T00:27:12;12.20;84.30
27940;DHT22;15275;51.716;14.324;2023-05-07T00:29:38;12.20;84.30
27940;DHT22;15275;51.716;14.324;2023-05-07T00:32:04;12.20;84.30
27940;DHT22;15275;51.716;14.324;2023-05-07T00:34:30;12.20;84.30
27940;DHT22;15275;51.716;14.324;2023-05-07T00:36:56;12.20;84.30
27940;DHT22;15275;51.716;14.324;2023-05-07T00:39:22;12.20;84.20
27940;DHT22;15275;51.716;14.324;2023-05-07T00:41:48;12.20;84.20
27940;DHT22;15275;51.716;14.324;2023-05-07T00:44:14;12.20;84.20
27940;DHT22;15275;51.716;14.324;2023-05-07T00:46:40;12.20;84.30
27940;DHT22;15275;51.716;14.324;2023-05-07T00:49:06;12.20;84.40
27940;DHT22;15275;51.716;14.324;2023-05-07T00:51:33;12.20;84.50
27940;DHT22;15275;51.716;14.324;2023-05-07T00:54:00;12.20;84.40
27940;DHT22;15275;51.716;14.324;2023-05-07T00:56:27;12.20;84.30
27940;DHT22;15275;51.716;14.324;2023-05-07T00:58:53;12.20;84.30
27940;DHT22;15275;51.716;14.324;2023-05-07T01:01:20;12.20;84.40
27940;DHT22;15275;51.716;14.324;2023-05-07T01:03:46;12.20;84.50
27940;DHT22;15275;51.716;14.324;2023-05-07T01:06:13;12.10;84.40
27940;DHT22;15275;51.716;14.324;2023-05-07T01:08:42;12.10;84.40
27940;DHT22;15275;51.716;14.324;2023-05-07T01:11:09;12.10;84.50
27940;DHT22;15275;51.716;14.324;2023-05-07T01:13:36;12.10;84.60
27940;DHT22;15275;51.716;14.324;2023-05-07T01:16:03;12.10;84.50
27940;DHT22;15275;51.716;14.324;2023-05-07T01:18:29;12.10;84.60
27940;DHT22;15275;51.716;14.324;2023-05-07T01:20:57;12.10;84.70
27940;DHT22;15275;51.716;14.324;2023-05-07T01:23:25;12.10;84.70
27940;DHT22;15275;51.716;14.324;2023-05-07T01:25:53;12.10;84.70
27940;DHT22;15275;51.716;14.324;2023-05-07T01:28:20;12.10;84.80
27940;DHT22;15275;51.716;14.324;2023-05-07T01:31:00;12.10;84.80
27940;DHT22;15275;51.716;14.324;2023-05-07T01:33:30;12.10;84.80
27940;DHT22;15275;51.716;14.324;2023-05-07T01:35:59;12.10;84.70
27940;DHT22;15275;51.716;14.324;2023-05-07T01:38:29;12.10;84.80
27940;DHT22;15275;51.716;14.324;2023-05-07T01:40:56;12.10;84.80
27940;DHT22;15275;51.716;14.324;2023-05-07T01:43:23;12.10;84.80
27940;DHT22;15275;51.716;14.324;2023-05-07T01:45:49;12.10;84.90
27940;DHT22;15275;51.716;14.324;2023-05-07T01:48:15;12.10;84.80
27940;DHT22;15275;51.716;14.324;2023-05-07T01:50:44;12.10;84.80
27940;DHT22;15275;51.716;14.324;2023-05-07T01:53:10;12.10;84.80
27940;DHT22;15275;51.716;14.324;2023-05-07T01:55:36;12.10;84.70
27940;DHT22;15275;51.716;14.324;2023-05-07T01:58:02;12.10;84.80
27940;DHT22;15275;51.716;14.324;2023-05-07T02:00:29;12.00;84.90
27940;DHT22;15275;51.716;14.324;2023-05-07T02:02:54;12.10;85.00
27940;DHT22;15275;51.716;14.324;2023-05-07T02:05:20;12.00;85.00
27940;DHT22;15275;51.716;14.324;2023-05-07T02:07:46;12.10;85.00
27940;DHT22;15275;51.716;14.324;2023-05-07T02:10:12;12.10;85.00
27940;DHT22;15275;51.716;14.324;2023-05-07T02:12:38;12.10;84.90
27940;DHT22;15275;51.716;14.324;2023-05-07T02:15:04;12.10;85.00
27940;DHT22;15275;51.716;14.324;2023-05-07T02:17:31;12.10;85.10
27940;DHT22;15275;51.716;14.324;2023-05-07T02:20:00;12.10;85.10
27940;DHT22;15275;51.716;14.324;2023-05-07T02:22:26;12.10;85.10
27940;DHT22;15275;51.716;14.324;2023-05-07T02:24:52;12.10;85.10
27940;DHT22;15275;51.716;14.324;2023-05-07T02:27:17;12.10;85.10
27940;DHT22;15275;51.716;14.324;2023-05-07T02:29:43;12.10;85.00
27940;DHT22;15275;51.716;14.324;2023-05-07T02:32:09;12.10;85.00
27940;DHT22;15275;51.716;14.324;2023-05-07T02:34:35;12.10;85.00
27940;DHT22;15275;51.716;14.324;2023-05-07T02:37:01;12.10;85.00
27940;DHT22;15275;51.716;14.324;2023-05-07T02:39:26;12.10;84.90
27940;DHT22;15275;51.716;14.324;2023-05-07T02:41:52;12.10;84.80
27940;DHT22;15275;51.716;14.324;2023-05-07T02:44:18;12.10;84.90
27940;DHT22;15275;51.716;14.324;2023-05-07T02:46:44;12.10;85.10
27940;DHT22;15275;51.716;14.324;2023-05-07T02:49:09;12.10;85.10
27940;DHT22;15275;51.716;14.324;2023-05-07T02:51:35;12.10;85.10
27940;DHT22;15275;51.716;14.324;2023-05-07T02:54:01;12.10;85.10
27940;DHT22;15275;51.716;14.324;2023-05-07T02:56:27;12.10;85.00
27940;DHT22;15275;51.716;14.324;2023-05-07T02:58:53;12.10;85.20
27940;DHT22;15275;51.716;14.324;2023-05-07T03:01:18;12.10;85.20
27940;DHT22;15275;51.716;14.324;2023-05-07T03:03:46;12.10;85.00
27940;DHT22;15275;51.716;14.324;2023-05-07T03:06:11;12.10;84.90
27940;DHT22;15275;51.716;14.324;2023-05-07T03:08:37;12.10;84.90
27940;DHT22;15275;51.716;14.324;2023-05-07T03:11:03;12.10;84.80
27940;DHT22;15275;51.716;14.324;2023-05-07T03:13:29;12.10;84.80
27940;DHT22;15275;51.716;14.324;2023-05-07T03:15:55;12.10;84.90
27940;DHT22;15275;51.716;14.324;2023-05-07T03:18:21;12.10;84.90
27940;DHT22;15275;51.716;14.324;2023-05-07T03:20:48;12.10;84.80
27940;DHT22;15275;51.716;14.324;2023-05-07T03:23:14;12.10;84.90
27940;DHT22;15275;51.716;14.324;2023-05-07T03:25:40;12.10;84.90
27940;DHT22;15275;51.716;14.324;2023-05-07T03:28:05;12.10;85.00
27940;DHT22;15275;51.716;14.324;2023-05-07T03:30:31;12.10;85.10
27940;DHT22;15275;51.716;14.324;2023-05-07T03:32:57;12.10;85.00
27940;DHT22;15275;51.716;14.324;2023-05-07T03:35:23;12.10;84.90
27940;DHT22;15275;51.716;14.324;2023-05-07T03:37:48;12.10;84.90
27940;DHT22;15275;51.716;14.324;2023-05-07T03:40:14;12.10;84.80
27940;DHT22;15275;51.716;14.324;2023-05-07T03:42:40;12.10;84.70
27940;DHT22;15275;51.716;14.324;2023-05-07T03:45:07;12.10;84.70
27940;DHT22;15275;51.716;14.324;2023-05-07T03:47:33;12.00;84.60
27940;DHT22;15275;51.716;14.324;2023-05-07T03:49:59;12.00;84.70
27940;DHT22;15275;51.716;14.324;2023-05-07T03:52:25;12.00;84.90
27940;DHT22;15275;51.716;14.324;2023-05-07T03:54:52;12.00;84.80
27940;DHT22;15275;51.716;14.324;2023-05-07T03:57:19;12.00;84.80
27940;DHT22;15275;51.716;14.324;2023-05-07T03:59:45;12.00;84.80
27940;DHT22;15275;51.716;14.324;2023-05-07T04:02:11;12.00;84.90
27940;DHT22;15275;51.716;14.324;2023-05-07T04:04:37;12.00;84.90
27940;DHT22;15275;51.716;14.324;2023-05-07T04:07:02;12.00;85.00
27940;DHT22;15275;51.716;14.324;2023-05-07T04:09:28;12.00;85.00
27940;DHT22;15275;51.716;14.324;2023-05-07T04:11:54;12.00;85.10
27940;DHT22;15275;51.716;14.324;2023-05-07T04:14:20;12.00;85.10
27940;DHT22;15275;51.716;14.324;2023-05-07T04:16:46;12.00;85.20
27940;DHT22;15275;51.716;14.324;2023-05-07T04:19:11;12.00;85.00
27940;DHT22;15275;51.716;14.324;2023-05-07T04:21:37;12.00;84.90
27940;DHT22;15275;51.716;14.324;2023-05-07T04:24:03;12.00;84.80
27940;DHT22;15275;51.716;14.324;2023-05-07T04:26:29;12.00;84.80
27940;DHT22;15275;51.716;14.324;2023-05-07T04:28:55;12.00;84.70
27940;DHT22;15275;51.716;14.324;2023-05-07T04:31:23;11.90;84.90
27940;DHT22;15275;51.716;14.324;2023-05-07T04:33:48;11.90;85.00
27940;DHT22;15275;51.716;14.324;2023-05-07T04:36:14;11.90;84.90
27940;DHT22;15275;51.716;14.324;2023-05-07T04:38:40;11.90;85.00
27940;DHT22;15275;51.716;14.324;2023-05-07T04:41:08;11.90;85.10
27940;DHT22;15275;51.716;14.324;2023-05-07T04:43:34;11.90;85.20
27940;DHT22;15275;51.716;14.324;2023-05-07T04:46:00;11.90;85.10
27940;DHT22;15275;51.716;14.324;2023-05-07T04:48:26;11.90;85.00
27940;DHT22;15275;51.716;14.324;2023-05-07T04:50:52;11.90;85.00
27940;DHT22;15275;51.716;14.324;2023-05-07T04:53:18;11.90;85.00
27940;DHT22;15275;51.716;14.324;2023-05-07T04:55:45;11.90;85.10
27940;DHT22;15275;51.716;14.324;2023-05-07T04:58:11;11.90;85.10
27940;DHT22;15275;51.716;14.324;2023-05-07T05:00:38;11.90;85.10
27940;DHT22;15275;51.716;14.324;2023-05-07T05:03:05;11.90;85.10
27940;DHT22;15275;51.716;14.324;2023-05-07T05:05:32;11.90;85.20
27940;DHT22;15275;51.716;14.324;2023-05-07T05:07:58;12.00;85.10
27940;DHT22;15275;51.716;14.324;2023-05-07T05:10:24;12.00;85.10
27940;DHT22;15275;51.716;14.324;2023-05-07T05:12:50;12.00;84.80
27940;DHT22;15275;51.716;14.324;2023-05-07T05:15:16;12.00;84.70
27940;DHT22;15275;51.716;14.324;2023-05-07T05:17:42;12.00;84.50
27940;DHT22;15275;51.716;14.324;2023-05-07T05:20:08;12.00;84.30
27940;DHT22;15275;51.716;14.324;2023-05-07T05:22:36;12.00;84.20
27940;DHT22;15275;51.716;14.324;2023-05-07T05:25:02;12.00;84.30
27940;DHT22;15275;51.716;14.324;2023-05-07T05:27:28;12.00;84.10
27940;DHT22;15275;51.716;14.324;2023-05-07T05:29:55;12.00;83.90
27940;DHT22;15275;51.716;14.324;2023-05-07T05:32:21;12.00;84.00
27940;DHT22;15275;51.716;14.324;2023-05-07T05:34:48;12.00;84.20
27940;DHT22;15275;51.716;14.324;2023-05-07T05:37:13;12.00;84.30
27940;DHT22;15275;51.716;14.324;2023-05-07T05:39:39;12.00;84.30
27940;DHT22;15275;51.716;14.324;2023-05-07T05:42:05;12.00;84.40
27940;DHT22;15275;51.716;14.324;2023-05-07T05:44:31;12.10;84.40
27940;DHT22;15275;51.716;14.324;2023-05-07T05:46:57;12.10;84.30
27940;DHT22;15275;51.716;14.324;2023-05-07T05:49:24;12.10;83.90
27940;DHT22;15275;51.716;14.324;2023-05-07T05:51:51;12.10;84.00
27940;DHT22;15275;51.716;14.324;2023-05-07T05:54:16;12.10;83.90
27940;DHT22;15275;51.716;14.324;2023-05-07T05:56:42;12.10;84.00
27940;DHT22;15275;51.716;14.324;2023-05-07T05:59:08;12.10;84.00
27940;DHT22;15275;51.716;14.324;2023-05-07T06:01:34;12.10;84.20
27940;DHT22;15275;51.716;14.324;2023-05-07T06:04:00;12.20;84.30
27940;DHT22;15275;51.716;14.324;2023-05-07T06:06:26;12.20;84.30
27940;DHT22;15275;51.716;14.324;2023-05-07T06:08:52;12.20;84.00
27940;DHT22;15275;51.716;14.324;2023-05-07T06:11:18;12.20;84.20
27940;DHT22;15275;51.716;14.324;2023-05-07T06:13:44;12.30;84.10
27940;DHT22;15275;51.716;14.324;2023-05-07T06:16:10;12.30;84.00
27940;DHT22;15275;51.716;14.324;2023-05-07T06:18:35;12.30;84.00
27940;DHT22;15275;51.716;14.324;2023-05-07T06:21:01;12.40;83.90
27940;DHT22;15275;51.716;14.324;2023-05-07T06:23:27;12.40;84.10
27940;DHT22;15275;51.716;14.324;2023-05-07T06:25:53;12.40;83.90
27940;DHT22;15275;51.716;14.324;2023-05-07T06:28:19;12.40;83.30
27940;DHT22;15275;51.716;14.324;2023-05-07T06:30:45;12.40;83.40
27940;DHT22;15275;51.716;14.324;2023-05-07T06:33:11;12.40;83.30
27940;DHT22;15275;51.716;14.324;2023-05-07T06:35:37;12.40;83.70
27940;DHT22;15275;51.716;14.324;2023-05-07T06:38:02;12.40;83.50
27940;DHT22;15275;51.716;14.324;2023-05-07T06:40:28;12.40;83.50
27940;DHT22;15275;51.716;14.324;2023-05-07T06:42:54;12.50;83.60
27940;DHT22;15275;51.716;14.324;2023-05-07T06:45:20;12.50;83.50
27940;DHT22;15275;51.716;14.324;2023-05-07T06:47:46;12.50;83.60
27940;DHT22;15275;51.716;14.324;2023-05-07T06:50:12;12.60;83.40
27940;DHT22;15275;51.716;14.324;2023-05-07T06:52:38;12.60;83.30
27940;DHT22;15275;51.716;14.324;2023-05-07T06:55:04;12.60;83.30
27940;DHT22;15275;51.716;14.324;2023-05-07T06:57:30;12.60;83.30
27940;DHT22;15275;51.716;14.324;2023-05-07T06:59:56;12.70;83.10
27940;DHT22;15275;51.716;14.324;2023-05-07T07:02:22;12.70;83.30
27940;DHT22;15275;51.716;14.324;2023-05-07T07:04:48;12.70;83.40
27940;DHT22;15275;51.716;14.324;2023-05-07T07:07:13;12.70;82.80
27940;DHT22;15275;51.716;14.324;2023-05-07T07:09:39;12.80;82.80
27940;DHT22;15275;51.716;14.324;2023-05-07T07:12:05;12.80;82.40
27940;DHT22;15275;51.716;14.324;2023-05-07T07:14:31;12.80;82.40
27940;DHT22;15275;51.716;14.324;2023-05-07T07:16:57;12.80;82.60
27940;DHT22;15275;51.716;14.324;2023-05-07T07:19:22;12.80;82.90
27940;DHT22;15275;51.716;14.324;2023-05-07T07:21:48;12.80;82.70
27940;DHT22;15275;51.716;14.324;2023-05-07T07:24:14;12.80;82.30
27940;DHT22;15275;51.716;14.324;2023-05-07T07:26:46;12.80;82.30
27940;DHT22;15275;51.716;14.324;2023-05-07T07:29:13;12.80;82.50
27940;DHT22;15275;51.716;14.324;2023-05-07T07:31:38;12.80;82.70
27940;DHT22;15275;51.716;14.324;2023-05-07T07:34:04;12.90;82.90
27940;DHT22;15275;51.716;14.324;2023-05-07T07:36:30;12.90;82.70
27940;DHT22;15275;51.716;14.324;2023-05-07T07:38:56;12.90;82.70
27940;DHT22;15275;51.716;14.324;2023-05-07T07:41:21;13.00;82.40
27940;DHT22;15275;51.716;14.324;2023-05-07T07:43:47;13.00;82.60
27940;DHT22;15275;51.716;14.324;2023-05-07T07:46:13;13.00;83.00
27940;DHT22;15275;51.716;14.324;2023-05-07T07:48:39;13.10;82.70
27940;DHT22;15275;51.716;14.324;2023-05-07T07:51:05;13.10;82.80
27940;DHT22;15275;51.716;14.324;2023-05-07T07:53:31;13.20;82.80
27940;DHT22;15275;51.716;14.324;2023-05-07T07:55:57;13.30;82.20
27940;DHT22;15275;51.716;14.324;2023-05-07T07:58:22;13.30;82.30
27940;DHT22;15275;51.716;14.324;2023-05-07T08:00:50;13.40;82.50
27940;DHT22;15275;51.716;14.324;2023-05-07T08:03:16;13.50;82.80
27940;DHT22;15275;51.716;14.324;2023-05-07T08:05:42;13.50;82.60
27940;DHT22;15275;51.716;14.324;2023-05-07T08:08:09;13.60;82.30
27940;DHT22;15275;51.716;14.324;2023-05-07T08:10:35;13.70;82.40
27940;DHT22;15275;51.716;14.324;2023-05-07T08:13:03;13.70;82.40
27940;DHT22;15275;51.716;14.324;2023-05-07T08:15:30;13.80;82.00
27940;DHT22;15275;51.716;14.324;2023-05-07T08:17:56;13.80;82.00
27940;DHT22;15275;51.716;14.324;2023-05-07T08:20:28;13.90;81.60
27940;DHT22;15275;51.716;14.324;2023-05-07T08:22:55;13.90;81.90
27940;DHT22;15275;51.716;14.324;2023-05-07T08:25:20;13.90;81.20
27940;DHT22;15275;51.716;14.324;2023-05-07T08:27:46;14.00;81.30
27940;DHT22;15275;51.716;14.324;2023-05-07T08:30:12;14.00;81.50
27940;DHT22;15275;51.716;14.324;2023-05-07T08:32:39;14.10;81.20
27940;DHT22;15275;51.716;14.324;2023-05-07T08:35:05;14.10;80.80
27940;DHT22;15275;51.716;14.324;2023-05-07T08:37:31;14.10;80.90
27940;DHT22;15275;51.716;14.324;2023-05-07T08:39:57;14.20;80.90
27940;DHT22;15275;51.716;14.324;2023-05-07T08:42:23;14.20;81.10
27940;DHT22;15275;51.716;14.324;2023-05-07T08:44:55;14.20;81.00
27940;DHT22;15275;51.716;14.324;2023-05-07T08:47:23;14.30;81.00
27940;DHT22;15275;51.716;14.324;2023-05-07T08:49:55;14.30;80.80
27940;DHT22;15275;51.716;14.324;2023-05-07T08:52:21;14.30;80.70
27940;DHT22;15275;51.716;14.324;2023-05-07T08:54:46;14.40;80.60
27940;DHT22;15275;51.716;14.324;2023-05-07T08:57:13;14.40;80.60
27940;DHT22;15275;51.716;14.324;2023-05-07T08:59:40;14.40;80.40
27940;DHT22;15275;51.716;14.324;2023-05-07T09:02:09;14.50;80.00
27940;DHT22;15275;51.716;14.324;2023-05-07T09:04:35;14.50;79.90
27940;DHT22;15275;51.716;14.324;2023-05-07T09:07:01;14.50;79.90
27940;DHT22;15275;51.716;14.324;2023-05-07T09:09:32;14.50;80.10
27940;DHT22;15275;51.716;14.324;2023-05-07T09:11:59;14.60;80.20
27940;DHT22;15275;51.716;14.324;2023-05-07T09:14:25;14.60;80.40
27940;DHT22;15275;51.716;14.324;2023-05-07T09:16:54;14.80;80.60
27940;DHT22;15275;51.716;14.324;2023-05-07T09:19:24;14.90;80.40
27940;DHT22;15275;51.716;14.324;2023-05-07T09:22:01;15.00;79.80
27940;DHT22;15275;51.716;14.324;2023-05-07T09:24:28;15.10;78.90
27940;DHT22;15275;51.716;14.324;2023-05-07T09:26:59;15.20;79.00
27940;DHT22;15275;51.716;14.324;2023-05-07T09:29:27;15.20;78.40
27940;DHT22;15275;51.716;14.324;2023-05-07T09:31:55;15.20;78.70
27940;DHT22;15275;51.716;14.324;2023-05-07T09:34:21;15.30;79.40
27940;DHT22;15275;51.716;14.324;2023-05-07T09:36:47;15.40;79.30
27940;DHT22;15275;51.716;14.324;2023-05-07T09:39:13;15.40;78.50
27940;DHT22;15275;51.716;14.324;2023-05-07T09:41:49;15.50;78.50
27940;DHT22;15275;51.716;14.324;2023-05-07T09:44:16;15.50;77.00
27940;DHT22;15275;51.716;14.324;2023-05-07T09:46:43;15.60;78.10
27940;DHT22;15275;51.716;14.324;2023-05-07T09:49:18;15.60;78.00
27940;DHT22;15275;51.716;14.324;2023-05-07T09:51:49;15.60;78.10
27940;DHT22;15275;51.716;14.324;2023-05-07T09:54:17;15.70;78.00
27940;DHT22;15275;51.716;14.324;2023-05-07T09:56:44;15.70;77.20
27940;DHT22;15275;51.716;14.324;2023-05-07T09:59:14;15.70;76.70
27940;DHT22;15275;51.716;14.324;2023-05-07T10:01:42;15.70;76.80
27940;DHT22;15275;51.716;14.324;2023-05-07T10:04:10;15.70;76.70
27940;DHT22;15275;51.716;14.324;2023-05-07T10:06:37;15.70;77.10
27940;DHT22;15275;51.716;14.324;2023-05-07T10:09:04;15.70;77.50
27940;DHT22;15275;51.716;14.324;2023-05-07T10:11:36;15.70;77.60
27940;DHT22;15275;51.716;14.324;2023-05-07T10:14:03;15.80;77.20
27940;DHT22;15275;51.716;14.324;2023-05-07T10:16:32;15.80;77.00
27940;DHT22;15275;51.716;14.324;2023-05-07T10:19:06;15.90;77.00
27940;DHT22;15275;51.716;14.324;2023-05-07T10:21:36;15.90;77.00
27940;DHT22;15275;51.716;14.324;2023-05-07T10:24:08;16.00;77.90
27940;DHT22;15275;51.716;14.324;2023-05-07T10:26:44;16.10;76.80
27940;DHT22;15275;51.716;14.324;2023-05-07T10:29:25;16.20;76.90
27940;DHT22;15275;51.716;14.324;2023-05-07T10:32:33;16.20;76.10
27940;DHT22;15275;51.716;14.324;2023-05-07T10:35:09;16.30;75.00
27940;DHT22;15275;51.716;14.324;2023-05-07T10:37:37;16.40;75.90
27940;DHT22;15275;51.716;14.324;2023-05-07T10:40:04;16.40;76.10
27940;DHT22;15275;51.716;14.324;2023-05-07T10:42:32;16.50;76.40
27940;DHT22;15275;51.716;14.324;2023-05-07T10:45:13;16.50;75.00
27940;DHT22;15275;51.716;14.324;2023-05-07T10:50:42;16.60;71.70
27940;DHT22;15275;51.716;14.324;2023-05-07T10:55:50;16.50;73.90
27940;DHT22;15275;51.716;14.324;2023-05-07T10:58:24;16.50;74.40
27940;DHT22;15275;51.716;14.324;2023-05-07T11:01:01;16.40;73.20
27940;DHT22;15275;51.716;14.324;2023-05-07T11:03:27;16.30;73.20
27940;DHT22;15275;51.716;14.324;2023-05-07T11:06:14;16.20;74.20
27940;DHT22;15275;51.716;14.324;2023-05-07T11:08:59;16.10;72.40
27940;DHT22;15275;51.716;14.324;2023-05-07T11:11:44;16.00;73.10
27940;DHT22;15275;51.716;14.324;2023-05-07T11:17:10;16.00;74.10
27940;DHT22;15275;51.716;14.324;2023-05-07T11:19:52;16.00;75.60
27940;DHT22;15275;51.716;14.324;2023-05-07T11:25:04;16.10;74.30
27940;DHT22;15275;51.716;14.324;2023-05-07T11:27:32;16.10;75.70
27940;DHT22;15275;51.716;14.324;2023-05-07T11:29:58;16.20;75.70
27940;DHT22;15275;51.716;14.324;2023-05-07T11:32:30;16.20;75.20
27940;DHT22;15275;51.716;14.324;2023-05-07T11:34:58;16.20;74.60
27940;DHT22;15275;51.716;14.324;2023-05-07T11:37:26;16.20;74.40
27940;DHT22;15275;51.716;14.324;2023-05-07T11:40:05;16.10;74.40
27940;DHT22;15275;51.716;14.324;2023-05-07T11:42:34;16.00;73.10
27940;DHT22;15275;51.716;14.324;2023-05-07T11:45:03;16.00;74.00
27940;DHT22;15275;51.716;14.324;2023-05-07T11:47:31;15.90;74.40
27940;DHT22;15275;51.716;14.324;2023-05-07T11:50:03;15.80;75.00
27940;DHT22;15275;51.716;14.324;2023-05-07T11:52:31;15.80;74.70
27940;DHT22;15275;51.716;14.324;2023-05-07T11:54:58;15.80;75.50
27940;DHT22;15275;51.716;14.324;2023-05-07T11:57:26;15.80;75.50
27940;DHT22;15275;51.716;14.324;2023-05-07T11:59:56;15.80;75.00
27940;DHT22;15275;51.716;14.324;2023-05-07T12:02:23;15.90;75.40
27940;DHT22;15275;51.716;14.324;2023-05-07T12:04:54;15.90;75.10
27940;DHT22;15275;51.716;14.324;2023-05-07T12:07:20;15.90;75.40
27940;DHT22;15275;51.716;14.324;2023-05-07T12:09:47;16.00;75.10
27940;DHT22;15275;51.716;14.324;2023-05-07T12:12:14;16.00;75.60
27940;DHT22;15275;51.716;14.324;2023-05-07T12:14:42;16.10;75.70
27940;DHT22;15275;51.716;14.324;2023-05-07T12:17:10;16.20;75.40
27940;DHT22;15275;51.716;14.324;2023-05-07T12:19:38;16.20;74.90
27940;DHT22;15275;51.716;14.324;2023-05-07T12:22:06;16.30;75.10
27940;DHT22;15275;51.716;14.324;2023-05-07T12:25:03;16.30;75.10
27940;DHT22;15275;51.716;14.324;2023-05-07T12:27:29;16.40;71.90
27940;DHT22;15275;51.716;14.324;2023-05-07T12:29:57;16.50;75.10
27940;DHT22;15275;51.716;14.324;2023-05-07T12:32:24;16.60;74.00
27940;DHT22;15275;51.716;14.324;2023-05-07T12:34:51;16.60;74.00
27940;DHT22;15275;51.716;14.324;2023-05-07T12:37:23;16.60;73.50
27940;DHT22;15275;51.716;14.324;2023-05-07T12:40:10;16.60;73.00
27940;DHT22;15275;51.716;14.324;2023-05-07T12:42:39;16.70;71.70
27940;DHT22;15275;51.716;14.324;2023-05-07T12:45:13;16.70;73.80
27940;DHT22;15275;51.716;14.324;2023-05-07T12:47:47;16.70;72.70
27940;DHT22;15275;51.716;14.324;2023-05-07T12:50:16;16.70;72.50
27940;DHT22;15275;51.716;14.324;2023-05-07T12:52:47;16.70;73.10
27940;DHT22;15275;51.716;14.324;2023-05-07T12:55:17;16.70;72.80
27940;DHT22;15275;51.716;14.324;2023-05-07T12:57:50;16.70;72.80
27940;DHT22;15275;51.716;14.324;2023-05-07T13:00:17;16.70;72.40
27940;DHT22;15275;51.716;14.324;2023-05-07T13:02:43;16.70;72.20
27940;DHT22;15275;51.716;14.324;2023-05-07T13:05:10;16.70;72.70
27940;DHT22;15275;51.716;14.324;2023-05-07T13:07:37;16.80;72.90
27940;DHT22;15275;51.716;14.324;2023-05-07T13:10:03;16.80;73.10
27940;DHT22;15275;51.716;14.324;2023-05-07T13:12:29;16.80;72.80
27940;DHT22;15275;51.716;14.324;2023-05-07T13:14:55;16.80;72.70
27940;DHT22;15275;51.716;14.324;2023-05-07T13:17:21;16.80;72.60
27940;DHT22;15275;51.716;14.324;2023-05-07T13:19:47;16.80;72.30
27940;DHT22;15275;51.716;14.324;2023-05-07T13:22:13;16.80;72.50
27940;DHT22;15275;51.716;14.324;2023-05-07T13:24:39;16.80;72.30
27940;DHT22;15275;51.716;14.324;2023-05-07T13:27:07;16.90;72.70
27940;DHT22;15275;51.716;14.324;2023-05-07T13:29:32;16.90;72.90
27940;DHT22;15275;51.716;14.324;2023-05-07T13:31:59;16.90;72.90
27940;DHT22;15275;51.716;14.324;2023-05-07T13:34:25;17.00;72.30
27940;DHT22;15275;51.716;14.324;2023-05-07T13:36:51;17.00;72.30
27940;DHT22;15275;51.716;14.324;2023-05-07T13:39:17;17.00;71.90
27940;DHT22;15275;51.716;14.324;2023-05-07T13:41:42;17.00;72.10
27940;DHT22;15275;51.716;14.324;2023-05-07T13:44:08;17.00;72.30
27940;DHT22;15275;51.716;14.324;2023-05-07T13:46:34;17.00;72.50
27940;DHT22;15275;51.716;14.324;2023-05-07T13:49:00;17.00;72.40
27940;DHT22;15275;51.716;14.324;2023-05-07T13:51:26;17.00;72.30
27940;DHT22;15275;51.716;14.324;2023-05-07T13:53:51;16.90;71.90
27940;DHT22;15275;51.716;14.324;2023-05-07T13:56:20;16.90;72.10
27940;DHT22;15275;51.716;14.324;2023-05-07T13:58:46;16.90;72.20
27940;DHT22;15275;51.716;14.324;2023-05-07T14:01:12;16.90;71.80
27940;DHT22;15275;51.716;14.324;2023-05-07T14:03:38;16.80;72.80
27940;DHT22;15275;51.716;14.324;2023-05-07T14:06:05;16.80;72.70
27940;DHT22;15275;51.716;14.324;2023-05-07T14:08:31;16.80;72.80
27940;DHT22;15275;51.716;14.324;2023-05-07T14:10:56;16.80;71.90
27940;DHT22;15275;51.716;14.324;2023-05-07T14:13:22;16.80;71.90
27940;DHT22;15275;51.716;14.324;2023-05-07T14:15:48;16.80;72.00
27940;DHT22;15275;51.716;14.324;2023-05-07T14:18:15;16.70;71.90
27940;DHT22;15275;51.716;14.324;2023-05-07T14:20:41;16.70;72.00
27940;DHT22;15275;51.716;14.324;2023-05-07T14:23:11;16.60;71.90
27940;DHT22;15275;51.716;14.324;2023-05-07T14:25:37;16.60;72.10
27940;DHT22;15275;51.716;14.324;2023-05-07T14:28:03;16.60;72.00
27940;DHT22;15275;51.716;14.324;2023-05-07T14:30:29;16.50;72.30
27940;DHT22;15275;51.716;14.324;2023-05-07T14:32:55;16.50;72.50
27940;DHT22;15275;51.716;14.324;2023-05-07T14:35:21;16.40;72.40
27940;DHT22;15275;51.716;14.324;2023-05-07T14:37:46;16.40;72.60
27940;DHT22;15275;51.716;14.324;2023-05-07T14:40:12;16.40;72.50
27940;DHT22;15275;51.716;14.324;2023-05-07T14:42:40;16.40;72.50
27940;DHT22;15275;51.716;14.324;2023-05-07T14:45:06;16.30;72.70
27940;DHT22;15275;51.716;14.324;2023-05-07T14:47:32;16.30;72.40
27940;DHT22;15275;51.716;14.324;2023-05-07T14:49:58;16.30;72.20
27940;DHT22;15275;51.716;14.324;2023-05-07T14:52:26;16.30;72.70
27940;DHT22;15275;51.716;14.324;2023-05-07T14:54:52;16.30;72.00
27940;DHT22;15275;51.716;14.324;2023-05-07T14:57:18;16.30;71.80
27940;DHT22;15275;51.716;14.324;2023-05-07T14:59:45;16.30;71.90
27940;DHT22;15275;51.716;14.324;2023-05-07T15:02:12;16.20;71.90
27940;DHT22;15275;51.716;14.324;2023-05-07T15:04:38;16.20;71.90
27940;DHT22;15275;51.716;14.324;2023-05-07T15:07:11;16.20;71.80
27940;DHT22;15275;51.716;14.324;2023-05-07T15:09:43;16.10;72.10
27940;DHT22;15275;51.716;14.324;2023-05-07T15:12:09;16.10;71.80
27940;DHT22;15275;51.716;14.324;2023-05-07T15:14:36;16.00;71.40
27940;DHT22;15275;51.716;14.324;2023-05-07T15:17:02;16.00;72.00
27940;DHT22;15275;51.716;14.324;2023-05-07T15:19:28;15.90;72.10
27940;DHT22;15275;51.716;14.324;2023-05-07T15:21:57;15.80;72.10
27940;DHT22;15275;51.716;14.324;2023-05-07T15:24:23;15.80;72.40
27940;DHT22;15275;51.716;14.324;2023-05-07T15:26:52;15.80;72.40